sensor_id;sensor_type;location;lat;lon;timestamp;temperature;humidity
64209;DHT22;50527;52.414;13.226;2023-12-14T00:00:27;6.00;99.90
64209;DHT22;50527;52.414;13.226;2023-12-14T00:02:52;6.00;99.90
64209;DHT22;50527;52.414;13.226;2023-12-14T00:05:18;5.90;99.90
64209;DHT22;50527;52.414;13.226;2023-12-14T00:07:44;6.00;99.90
64209;DHT22;50527;52.414;13.226;2023-12-14T00:10:09;5.80;99.90
64209;DHT22;50527;52.414;13.226;2023-12-14T00:12:35;5.90;99.90
64209;DHT22;50527;52.414;13.226;2023-12-14T00:15:00;5.80;99.90
64209;DHT22;50527;52.414;13.226;2023-12-14T00:17:26;5.90;99.90
64209;DHT22;50527;52.414;13.226;2023-12-14T00:19:52;5.90;99.90
64209;DHT22;50527;52.414;13.226;2023-12-14T00:22:17;5.90;99.90
64209;DHT22;50527;52.414;13.226;2023-12-14T00:24:43;5.90;99.90
64209;DHT22;50527;52.414;13.226;2023-12-14T00:27:08;5.90;99.90
64209;DHT22;50527;52.414;13.226;2023-12-14T00:29:34;5.90;99.90
64209;DHT22;50527;52.414;13.226;2023-12-14T00:31:59;5.90;99.90
64209;DHT22;50527;52.414;13.226;2023-12-14T00:34:25;6.00;99.90
64209;DHT22;50527;52.414;13.226;2023-12-14T00:36:50;6.00;99.90
64209;DHT22;50527;52.414;13.226;2023-12-14T00:39:16;6.00;99.90
64209;DHT22;50527;52.414;13.226;2023-12-14T00:41:41;5.90;99.90
64209;DHT22;50527;52.414;13.226;2023-12-14T00:44:07;5.90;99.90
64209;DHT22;50527;52.414;13.226;2023-12-14T00:46:32;5.80;99.90
64209;DHT22;50527;52.414;13.226;2023-12-14T00:48:58;5.90;99.90
64209;DHT22;50527;52.414;13.226;2023-12-14T00:51:24;5.90;99.90
64209;DHT22;50527;52.414;13.226;2023-12-14T00:53:49;5.90;99.90
64209;DHT22;50527;52.414;13.226;2023-12-14T00:56:15;5.90;99.90
64209;DHT22;50527;52.414;13.226;2023-12-14T00:58:40;5.90;99.90
64209;DHT22;50527;52.414;13.226;2023-12-14T01:01:06;5.90;99.90
64209;DHT22;50527;52.414;13.226;2023-12-14T01:03:31;5.90;99.90
64209;DHT22;50527;52.414;13.226;2023-12-14T01:05:57;5.70;99.90
64209;DHT22;50527;52.414;13.226;2023-12-14T01:08:23;5.70;99.90
64209;DHT22;50527;52.414;13.226;2023-12-14T01:10:49;5.60;99.90
64209;DHT22;50527;52.414;13.226;2023-12-14T01:13:14;5.60;99.90
64209;DHT22;50527;52.414;13.226;2023-12-14T01:15:40;5.50;99.90
64209;DHT22;50527;52.414;13.226;2023-12-14T01:18:05;5.50;99.90
64209;DHT22;50527;52.414;13.226;2023-12-14T01:20:31;5.50;99.90
64209;DHT22;50527;52.414;13.226;2023-12-14T01:22:56;5.50;99.90
64209;DHT22;50527;52.414;13.226;2023-12-14T01:25:22;5.60;99.90
64209;DHT22;50527;52.414;13.226;2023-12-14T01:27:47;5.60;99.90
64209;DHT22;50527;52.414;13.226;2023-12-14T01:30:13;5.60;99.90
64209;DHT22;50527;52.414;13.226;2023-12-14T01:32:38;5.60;99.90
64209;DHT22;50527;52.414;13.226;2023-12-14T01:35:05;5.60;99.90
64209;DHT22;50527;52.414;13.226;2023-12-14T01:37:30;5.60;99.90
64209;DHT22;50527;52.414;13.226;2023-12-14T01:39:56;5.70;99.90
64209;DHT22;50527;52.414;13.226;2023-12-14T01:42:21;5.70;99.90
64209;DHT22;50527;52.414;13.226;2023-12-14T01:44:47;5.70;99.90
64209;DHT22;50527;52.414;13.226;2023-12-14T01:47:13;5.70;99.90
64209;DHT22;50527;52.414;13.226;2023-12-14T01:49:38;5.70;99.90
64209;DHT22;50527;52.414;13.226;2023-12-14T01:52:04;5.70;99.90
64209;DHT22;50527;52.414;13.226;2023-12-14T01:54:30;5.70;99.90
64209;DHT22;50527;52.414;13.226;2023-12-14T01:56:56;5.60;99.90
64209;DHT22;50527;52.414;13.226;2023-12-14T01:59:21;5.60;99.90
64209;DHT22;50527;52.414;13.226;2023-12-14T02:01:52;5.40;99.90
64209;DHT22;50527;52.414;13.226;2023-12-14T02:04:18;5.40;99.90
64209;DHT22;50527;52.414;13.226;2023-12-14T02:06:44;5.40;99.90
64209;DHT22;50527;52.414;13.226;2023-12-14T02:09:09;5.30;99.90
64209;DHT22;50527;52.414;13.226;2023-12-14T02:11:35;5.20;99.90
64209;DHT22;50527;52.414;13.226;2023-12-14T02:14:09;5.30;99.90
64209;DHT22;50527;52.414;13.226;2023-12-14T02:16:35;5.20;99.90
64209;DHT22;50527;52.414;13.226;2023-12-14T02:19:04;5.10;99.90
64209;DHT22;50527;52.414;13.226;2023-12-14T02:21:29;5.20;99.90
64209;DHT22;50527;52.414;13.226;2023-12-14T02:23:55;5.20;99.90
64209;DHT22;50527;52.414;13.226;2023-12-14T02:26:21;5.20;99.90
64209;DHT22;50527;52.414;13.226;2023-12-14T02:28:46;5.20;99.90
64209;DHT22;50527;52.414;13.226;2023-12-14T02:31:12;5.30;99.90
64209;DHT22;50527;52.414;13.226;2023-12-14T02:33:37;5.30;99.90
64209;DHT22;50527;52.414;13.226;2023-12-14T02:36:04;5.20;99.90
64209;DHT22;50527;52.414;13.226;2023-12-14T02:38:29;5.10;99.90
64209;DHT22;50527;52.414;13.226;2023-12-14T02:40:55;5.10;99.90
64209;DHT22;50527;52.414;13.226;2023-12-14T02:43:20;5.10;99.90
64209;DHT22;50527;52.414;13.226;2023-12-14T02:45:46;5.10;99.90
64209;DHT22;50527;52.414;13.226;2023-12-14T02:48:12;5.10;99.90
64209;DHT22;50527;52.414;13.226;2023-12-14T02:50:38;5.00;99.90
64209;DHT22;50527;52.414;13.226;2023-12-14T02:53:03;4.90;99.90
64209;DHT22;50527;52.414;13.226;2023-12-14T02:55:29;4.90;99.90
64209;DHT22;50527;52.414;13.226;2023-12-14T02:57:54;4.90;99.90
64209;DHT22;50527;52.414;13.226;2023-12-14T03:00:20;4.90;99.90
64209;DHT22;50527;52.414;13.226;2023-12-14T03:02:46;4.90;99.90
64209;DHT22;50527;52.414;13.226;2023-12-14T03:05:11;4.90;99.90
64209;DHT22;50527;52.414;13.226;2023-12-14T03:07:37;5.00;99.90
64209;DHT22;50527;52.414;13.226;2023-12-14T03:10:03;4.90;99.90
64209;DHT22;50527;52.414;13.226;2023-12-14T03:12:29;4.90;99.90
64209;DHT22;50527;52.414;13.226;2023-12-14T03:14:55;5.00;99.90
64209;DHT22;50527;52.414;13.226;2023-12-14T03:17:20;4.90;99.90
64209;DHT22;50527;52.414;13.226;2023-12-14T03:19:46;4.90;99.90
64209;DHT22;50527;52.414;13.226;2023-12-14T03:22:12;4.90;99.90
64209;DHT22;50527;52.414;13.226;2023-12-14T03:24:38;4.80;99.90
64209;DHT22;50527;52.414;13.226;2023-12-14T03:27:04;4.90;99.90
64209;DHT22;50527;52.414;13.226;2023-12-14T03:29:30;4.80;99.90
64209;DHT22;50527;52.414;13.226;2023-12-14T03:31:56;4.80;99.90
64209;DHT22;50527;52.414;13.226;2023-12-14T03:34:22;4.90;99.90
64209;DHT22;50527;52.414;13.226;2023-12-14T03:36:48;4.90;99.90
64209;DHT22;50527;52.414;13.226;2023-12-14T03:39:14;4.90;99.90
64209;DHT22;50527;52.414;13.226;2023-12-14T03:41:41;4.80;99.90
64209;DHT22;50527;52.414;13.226;2023-12-14T03:44:07;4.90;99.90
64209;DHT22;50527;52.414;13.226;2023-12-14T03:46:33;4.80;99.90
64209;DHT22;50527;52.414;13.226;2023-12-14T03:48:59;4.80;99.90
64209;DHT22;50527;52.414;13.226;2023-12-14T03:51:25;4.80;99.90
64209;DHT22;50527;52.414;13.226;2023-12-14T03:53:51;4.80;99.90
64209;DHT22;50527;52.414;13.226;2023-12-14T03:56:16;4.80;99.90
64209;DHT22;50527;52.414;13.226;2023-12-14T03:58:42;4.80;99.90
64209;DHT22;50527;52.414;13.226;2023-12-14T04:01:07;4.80;99.90
64209;DHT22;50527;52.414;13.226;2023-12-14T04:03:33;4.70;99.90
64209;DHT22;50527;52.414;13.226;2023-12-14T04:05:58;4.80;99.90
64209;DHT22;50527;52.414;13.226;2023-12-14T04:08:24;4.90;99.90
64209;DHT22;50527;52.414;13.226;2023-12-14T04:10:49;4.90;99.90
64209;DHT22;50527;52.414;13.226;2023-12-14T04:13:15;4.90;99.90
64209;DHT22;50527;52.414;13.226;2023-12-14T04:15:41;4.80;99.90
64209;DHT22;50527;52.414;13.226;2023-12-14T04:18:07;4.80;99.90
64209;DHT22;50527;52.414;13.226;2023-12-14T04:20:33;4.90;99.90
64209;DHT22;50527;52.414;13.226;2023-12-14T04:22:59;4.90;99.90
64209;DHT22;50527;52.414;13.226;2023-12-14T04:25:25;4.90;99.90
64209;DHT22;50527;52.414;13.226;2023-12-14T04:27:50;4.90;99.90
64209;DHT22;50527;52.414;13.226;2023-12-14T04:30:16;4.80;99.90
64209;DHT22;50527;52.414;13.226;2023-12-14T04:32:42;4.80;99.90
64209;DHT22;50527;52.414;13.226;2023-12-14T04:35:07;4.80;99.90
64209;DHT22;50527;52.414;13.226;2023-12-14T04:37:33;4.90;99.90
64209;DHT22;50527;52.414;13.226;2023-12-14T04:39:59;4.80;99.90
64209;DHT22;50527;52.414;13.226;2023-12-14T04:42:25;4.90;99.90
64209;DHT22;50527;52.414;13.226;2023-12-14T04:44:51;4.80;99.90
64209;DHT22;50527;52.414;13.226;2023-12-14T04:47:17;4.80;99.90
64209;DHT22;50527;52.414;13.226;2023-12-14T04:49:42;4.70;99.90
64209;DHT22;50527;52.414;13.226;2023-12-14T04:52:08;4.80;99.90
64209;DHT22;50527;52.414;13.226;2023-12-14T04:54:34;4.80;99.90
64209;DHT22;50527;52.414;13.226;2023-12-14T04:57:03;4.80;99.90
64209;DHT22;50527;52.414;13.226;2023-12-14T04:59:29;4.90;99.90
64209;DHT22;50527;52.414;13.226;2023-12-14T05:01:54;4.80;99.90
64209;DHT22;50527;52.414;13.226;2023-12-14T05:04:20;4.80;99.90
64209;DHT22;50527;52.414;13.226;2023-12-14T05:06:45;4.80;99.90
64209;DHT22;50527;52.414;13.226;2023-12-14T05:09:11;4.70;99.90
64209;DHT22;50527;52.414;13.226;2023-12-14T05:11:38;4.70;99.90
64209;DHT22;50527;52.414;13.226;2023-12-14T05:14:04;4.70;99.90
64209;DHT22;50527;52.414;13.226;2023-12-14T05:16:30;4.70;99.90
64209;DHT22;50527;52.414;13.226;2023-12-14T05:18:56;4.80;99.90
64209;DHT22;50527;52.414;13.226;2023-12-14T05:21:22;4.80;99.90
64209;DHT22;50527;52.414;13.226;2023-12-14T05:23:48;4.90;99.90
64209;DHT22;50527;52.414;13.226;2023-12-14T05:26:13;4.80;99.90
64209;DHT22;50527;52.414;13.226;2023-12-14T05:28:39;4.80;99.90
64209;DHT22;50527;52.414;13.226;2023-12-14T05:31:05;4.80;99.90
64209;DHT22;50527;52.414;13.226;2023-12-14T05:33:30;4.90;99.90
64209;DHT22;50527;52.414;13.226;2023-12-14T05:36:00;4.90;99.90
64209;DHT22;50527;52.414;13.226;2023-12-14T05:38:26;4.90;99.90
64209;DHT22;50527;52.414;13.226;2023-12-14T05:40:51;4.90;99.90
64209;DHT22;50527;52.414;13.226;2023-12-14T05:43:17;4.80;99.90
64209;DHT22;50527;52.414;13.226;2023-12-14T05:45:42;4.80;99.90
64209;DHT22;50527;52.414;13.226;2023-12-14T05:48:08;4.90;99.90
64209;DHT22;50527;52.414;13.226;2023-12-14T05:50:33;4.80;99.90
64209;DHT22;50527;52.414;13.226;2023-12-14T05:52:59;4.90;99.90
64209;DHT22;50527;52.414;13.226;2023-12-14T05:55:24;4.90;99.90
64209;DHT22;50527;52.414;13.226;2023-12-14T05:57:50;4.80;99.90
64209;DHT22;50527;52.414;13.226;2023-12-14T06:00:18;4.80;99.90
64209;DHT22;50527;52.414;13.226;2023-12-14T06:02:43;4.80;99.90
64209;DHT22;50527;52.414;13.226;2023-12-14T06:05:09;4.90;99.90
64209;DHT22;50527;52.414;13.226;2023-12-14T06:07:35;4.90;99.90
64209;DHT22;50527;52.414;13.226;2023-12-14T06:10:00;4.90;99.90
64209;DHT22;50527;52.414;13.226;2023-12-14T06:12:27;4.90;99.90
64209;DHT22;50527;52.414;13.226;2023-12-14T06:14:52;4.90;99.90
64209;DHT22;50527;52.414;13.226;2023-12-14T06:17:18;5.00;99.90
64209;DHT22;50527;52.414;13.226;2023-12-14T06:19:43;5.00;99.90
64209;DHT22;50527;52.414;13.226;2023-12-14T06:22:09;5.00;99.90
64209;DHT22;50527;52.414;13.226;2023-12-14T06:24:35;5.00;99.90
64209;DHT22;50527;52.414;13.226;2023-12-14T06:27:00;5.00;99.90
64209;DHT22;50527;52.414;13.226;2023-12-14T06:29:26;5.00;99.90
64209;DHT22;50527;52.414;13.226;2023-12-14T06:31:51;5.00;99.90
64209;DHT22;50527;52.414;13.226;2023-12-14T06:34:17;5.00;99.90
64209;DHT22;50527;52.414;13.226;2023-12-14T06:36:44;5.10;99.90
64209;DHT22;50527;52.414;13.226;2023-12-14T06:39:11;5.10;99.90
64209;DHT22;50527;52.414;13.226;2023-12-14T06:41:37;5.00;99.90
64209;DHT22;50527;52.414;13.226;2023-12-14T06:44:02;5.00;99.90
64209;DHT22;50527;52.414;13.226;2023-12-14T06:46:29;5.00;99.90
64209;DHT22;50527;52.414;13.226;2023-12-14T06:48:55;5.00;99.90
64209;DHT22;50527;52.414;13.226;2023-12-14T06:51:21;5.00;99.90
64209;DHT22;50527;52.414;13.226;2023-12-14T06:53:47;5.10;99.90
64209;DHT22;50527;52.414;13.226;2023-12-14T06:56:13;5.00;99.90
64209;DHT22;50527;52.414;13.226;2023-12-14T06:58:43;5.10;99.90
64209;DHT22;50527;52.414;13.226;2023-12-14T07:01:12;5.10;99.90
64209;DHT22;50527;52.414;13.226;2023-12-14T07:03:43;5.10;99.90
64209;DHT22;50527;52.414;13.226;2023-12-14T07:06:15;5.10;99.90
64209;DHT22;50527;52.414;13.226;2023-12-14T07:08:41;5.10;99.90
64209;DHT22;50527;52.414;13.226;2023-12-14T07:11:08;5.10;99.90
64209;DHT22;50527;52.414;13.226;2023-12-14T07:13:33;5.10;99.90
64209;DHT22;50527;52.414;13.226;2023-12-14T07:16:03;5.10;99.90
64209;DHT22;50527;52.414;13.226;2023-12-14T07:18:29;5.10;99.90
64209;DHT22;50527;52.414;13.226;2023-12-14T07:20:54;5.10;99.90
64209;DHT22;50527;52.414;13.226;2023-12-14T07:23:20;5.10;99.90
64209;DHT22;50527;52.414;13.226;2023-12-14T07:25:45;5.10;99.90
64209;DHT22;50527;52.414;13.226;2023-12-14T07:28:11;5.10;99.90
64209;DHT22;50527;52.414;13.226;2023-12-14T07:30:36;5.10;99.90
64209;DHT22;50527;52.414;13.226;2023-12-14T07:33:02;5.20;99.90
64209;DHT22;50527;52.414;13.226;2023-12-14T07:35:27;5.20;99.90
64209;DHT22;50527;52.414;13.226;2023-12-14T07:37:53;5.20;99.90
64209;DHT22;50527;52.414;13.226;2023-12-14T07:40:18;5.20;99.90
64209;DHT22;50527;52.414;13.226;2023-12-14T07:42:44;5.20;99.90
64209;DHT22;50527;52.414;13.226;2023-12-14T07:45:10;5.10;99.90
64209;DHT22;50527;52.414;13.226;2023-12-14T07:47:35;5.10;99.90
64209;DHT22;50527;52.414;13.226;2023-12-14T07:50:02;5.10;99.90
64209;DHT22;50527;52.414;13.226;2023-12-14T07:52:27;5.20;99.90
64209;DHT22;50527;52.414;13.226;2023-12-14T07:54:53;5.20;99.90
64209;DHT22;50527;52.414;13.226;2023-12-14T07:57:18;5.10;99.90
64209;DHT22;50527;52.414;13.226;2023-12-14T07:59:44;5.20;99.90
64209;DHT22;50527;52.414;13.226;2023-12-14T08:02:11;5.20;99.90
64209;DHT22;50527;52.414;13.226;2023-12-14T08:04:37;5.20;99.90
64209;DHT22;50527;52.414;13.226;2023-12-14T08:07:02;5.20;99.90
64209;DHT22;50527;52.414;13.226;2023-12-14T08:09:28;5.20;99.90
64209;DHT22;50527;52.414;13.226;2023-12-14T08:11:54;5.20;99.90
64209;DHT22;50527;52.414;13.226;2023-12-14T08:14:19;5.20;99.90
64209;DHT22;50527;52.414;13.226;2023-12-14T08:16:45;5.20;99.90
64209;DHT22;50527;52.414;13.226;2023-12-14T08:19:10;5.20;99.90
64209;DHT22;50527;52.414;13.226;2023-12-14T08:21:36;5.20;99.90
64209;DHT22;50527;52.414;13.226;2023-12-14T08:24:01;5.30;99.90
64209;DHT22;50527;52.414;13.226;2023-12-14T08:26:27;5.20;99.90
64209;DHT22;50527;52.414;13.226;2023-12-14T08:28:53;5.20;99.90
64209;DHT22;50527;52.414;13.226;2023-12-14T08:31:18;5.20;99.90
64209;DHT22;50527;52.414;13.226;2023-12-14T08:33:44;5.20;99.90
64209;DHT22;50527;52.414;13.226;2023-12-14T08:36:10;5.30;99.90
64209;DHT22;50527;52.414;13.226;2023-12-14T08:38:35;5.20;99.90
64209;DHT22;50527;52.414;13.226;2023-12-14T08:41:01;5.20;99.90
64209;DHT22;50527;52.414;13.226;2023-12-14T08:43:26;5.20;99.90
64209;DHT22;50527;52.414;13.226;2023-12-14T08:45:52;5.20;99.90
64209;DHT22;50527;52.414;13.226;2023-12-14T08:48:18;5.20;99.90
64209;DHT22;50527;52.414;13.226;2023-12-14T08:50:44;5.20;99.90
64209;DHT22;50527;52.414;13.226;2023-12-14T08:53:09;5.10;99.90
64209;DHT22;50527;52.414;13.226;2023-12-14T08:55:35;5.20;99.90
64209;DHT22;50527;52.414;13.226;2023-12-14T08:58:00;5.20;99.90
64209;DHT22;50527;52.414;13.226;2023-12-14T09:00:26;5.20;99.90
64209;DHT22;50527;52.414;13.226;2023-12-14T09:02:51;5.30;99.90
64209;DHT22;50527;52.414;13.226;2023-12-14T09:05:18;5.30;99.90
64209;DHT22;50527;52.414;13.226;2023-12-14T09:07:46;5.30;99.90
64209;DHT22;50527;52.414;13.226;2023-12-14T09:10:12;5.30;99.90
64209;DHT22;50527;52.414;13.226;2023-12-14T09:12:37;5.30;99.90
64209;DHT22;50527;52.414;13.226;2023-12-14T09:15:04;5.40;99.90
64209;DHT22;50527;52.414;13.226;2023-12-14T09:17:29;5.40;99.90
64209;DHT22;50527;52.414;13.226;2023-12-14T09:19:59;5.40;99.90
64209;DHT22;50527;52.414;13.226;2023-12-14T09:22:25;5.40;99.90
64209;DHT22;50527;52.414;13.226;2023-12-14T09:24:50;5.40;99.90
64209;DHT22;50527;52.414;13.226;2023-12-14T09:27:16;5.40;99.90
64209;DHT22;50527;52.414;13.226;2023-12-14T09:29:42;5.40;99.90
64209;DHT22;50527;52.414;13.226;2023-12-14T09:32:08;5.40;99.90
64209;DHT22;50527;52.414;13.226;2023-12-14T09:34:34;5.40;99.90
64209;DHT22;50527;52.414;13.226;2023-12-14T09:36:59;5.40;99.90
64209;DHT22;50527;52.414;13.226;2023-12-14T09:39:25;5.40;99.90
64209;DHT22;50527;52.414;13.226;2023-12-14T09:41:51;5.40;99.90
64209;DHT22;50527;52.414;13.226;2023-12-14T09:44:17;5.40;99.90
64209;DHT22;50527;52.414;13.226;2023-12-14T09:46:43;5.50;99.90
64209;DHT22;50527;52.414;13.226;2023-12-14T09:49:15;5.40;99.90
64209;DHT22;50527;52.414;13.226;2023-12-14T09:51:41;5.40;99.90
64209;DHT22;50527;52.414;13.226;2023-12-14T09:54:06;5.40;99.90
64209;DHT22;50527;52.414;13.226;2023-12-14T09:56:32;5.40;99.90
64209;DHT22;50527;52.414;13.226;2023-12-14T09:58:57;5.40;99.90
64209;DHT22;50527;52.414;13.226;2023-12-14T10:01:27;5.40;99.90
64209;DHT22;50527;52.414;13.226;2023-12-14T10:04:15;5.40;99.90
64209;DHT22;50527;52.414;13.226;2023-12-14T10:06:43;5.40;99.90
64209;DHT22;50527;52.414;13.226;2023-12-14T10:09:09;5.40;99.90
64209;DHT22;50527;52.414;13.226;2023-12-14T10:11:39;5.40;99.90
64209;DHT22;50527;52.414;13.226;2023-12-14T10:14:21;5.40;99.90
64209;DHT22;50527;52.414;13.226;2023-12-14T10:16:48;5.40;99.90
64209;DHT22;50527;52.414;13.226;2023-12-14T10:19:14;5.40;99.90
64209;DHT22;50527;52.414;13.226;2023-12-14T10:21:39;5.40;99.90
64209;DHT22;50527;52.414;13.226;2023-12-14T10:24:06;5.40;99.90
64209;DHT22;50527;52.414;13.226;2023-12-14T10:26:31;5.40;99.90
64209;DHT22;50527;52.414;13.226;2023-12-14T10:28:57;5.40;99.90
64209;DHT22;50527;52.414;13.226;2023-12-14T10:31:24;5.40;99.90
64209;DHT22;50527;52.414;13.226;2023-12-14T10:33:51;5.50;99.90
64209;DHT22;50527;52.414;13.226;2023-12-14T10:36:22;5.50;99.90
64209;DHT22;50527;52.414;13.226;2023-12-14T10:38:52;5.50;99.90
64209;DHT22;50527;52.414;13.226;2023-12-14T10:41:18;5.50;99.90
64209;DHT22;50527;52.414;13.226;2023-12-14T10:43:47;5.50;99.90
64209;DHT22;50527;52.414;13.226;2023-12-14T10:46:14;5.50;99.90
64209;DHT22;50527;52.414;13.226;2023-12-14T10:48:40;5.50;99.90
64209;DHT22;50527;52.414;13.226;2023-12-14T10:51:08;5.50;99.90
64209;DHT22;50527;52.414;13.226;2023-12-14T10:53:35;5.60;99.90
64209;DHT22;50527;52.414;13.226;2023-12-14T10:56:04;5.60;99.90
64209;DHT22;50527;52.414;13.226;2023-12-14T10:58:52;5.60;99.90
64209;DHT22;50527;52.414;13.226;2023-12-14T11:01:20;5.60;99.90
64209;DHT22;50527;52.414;13.226;2023-12-14T11:03:47;5.60;99.90
64209;DHT22;50527;52.414;13.226;2023-12-14T11:09:03;5.60;99.90
64209;DHT22;50527;52.414;13.226;2023-12-14T11:14:07;5.60;99.90
64209;DHT22;50527;52.414;13.226;2023-12-14T11:16:36;5.60;99.90
64209;DHT22;50527;52.414;13.226;2023-12-14T11:21:47;5.60;99.90
64209;DHT22;50527;52.414;13.226;2023-12-14T11:24:13;5.60;99.90
64209;DHT22;50527;52.414;13.226;2023-12-14T11:26:40;5.60;99.90
64209;DHT22;50527;52.414;13.226;2023-12-14T11:29:06;5.60;99.90
64209;DHT22;50527;52.414;13.226;2023-12-14T11:31:32;5.70;99.90
64209;DHT22;50527;52.414;13.226;2023-12-14T11:33:59;5.60;99.90
64209;DHT22;50527;52.414;13.226;2023-12-14T11:36:26;5.60;99.90
64209;DHT22;50527;52.414;13.226;2023-12-14T11:38:52;5.60;99.90
64209;DHT22;50527;52.414;13.226;2023-12-14T11:41:21;5.60;99.90
64209;DHT22;50527;52.414;13.226;2023-12-14T11:43:46;5.70;99.90
64209;DHT22;50527;52.414;13.226;2023-12-14T11:46:14;5.60;99.90
64209;DHT22;50527;52.414;13.226;2023-12-14T11:48:43;5.60;99.90
64209;DHT22;50527;52.414;13.226;2023-12-14T11:51:10;5.50;99.90
64209;DHT22;50527;52.414;13.226;2023-12-14T11:53:36;5.60;99.90
64209;DHT22;50527;52.414;13.226;2023-12-14T11:56:04;5.70;99.90
64209;DHT22;50527;52.414;13.226;2023-12-14T11:58:32;5.60;99.90
64209;DHT22;50527;52.414;13.226;2023-12-14T12:01:17;5.60;99.90
64209;DHT22;50527;52.414;13.226;2023-12-14T12:03:44;5.70;99.90
64209;DHT22;50527;52.414;13.226;2023-12-14T12:06:23;5.60;99.90
64209;DHT22;50527;52.414;13.226;2023-12-14T12:08:50;5.70;99.90
64209;DHT22;50527;52.414;13.226;2023-12-14T12:11:20;5.70;99.90
64209;DHT22;50527;52.414;13.226;2023-12-14T12:13:54;5.60;99.90
64209;DHT22;50527;52.414;13.226;2023-12-14T12:16:20;5.60;99.90
64209;DHT22;50527;52.414;13.226;2023-12-14T12:18:46;5.60;99.90
64209;DHT22;50527;52.414;13.226;2023-12-14T12:21:12;5.60;99.90
64209;DHT22;50527;52.414;13.226;2023-12-14T12:23:38;5.60;99.90
64209;DHT22;50527;52.414;13.226;2023-12-14T12:26:04;5.60;99.90
64209;DHT22;50527;52.414;13.226;2023-12-14T12:28:31;5.60;99.90
64209;DHT22;50527;52.414;13.226;2023-12-14T12:30:57;5.60;99.90
64209;DHT22;50527;52.414;13.226;2023-12-14T12:33:23;5.60;99.90
64209;DHT22;50527;52.414;13.226;2023-12-14T12:35:48;5.60;99.90
64209;DHT22;50527;52.414;13.226;2023-12-14T12:38:14;5.60;99.90
64209;DHT22;50527;52.414;13.226;2023-12-14T12:40:41;5.60;99.90
64209;DHT22;50527;52.414;13.226;2023-12-14T12:43:07;5.60;99.90
64209;DHT22;50527;52.414;13.226;2023-12-14T12:45:32;5.60;99.90
64209;DHT22;50527;52.414;13.226;2023-12-14T12:47:58;5.60;99.90
64209;DHT22;50527;52.414;13.226;2023-12-14T12:50:24;5.60;99.90
64209;DHT22;50527;52.414;13.226;2023-12-14T12:52:50;5.60;99.90
64209;DHT22;50527;52.414;13.226;2023-12-14T12:55:16;5.60;99.90
64209;DHT22;50527;52.414;13.226;2023-12-14T12:57:42;5.60;99.90
64209;DHT22;50527;52.414;13.226;2023-12-14T13:00:08;5.60;99.90
64209;DHT22;50527;52.414;13.226;2023-12-14T13:02:40;5.50;99.90
64209;DHT22;50527;52.414;13.226;2023-12-14T13:05:08;5.50;99.90
64209;DHT22;50527;52.414;13.226;2023-12-14T13:07:35;5.50;99.90
64209;DHT22;50527;52.414;13.226;2023-12-14T13:10:02;5.50;99.90
64209;DHT22;50527;52.414;13.226;2023-12-14T13:12:29;5.60;99.90
64209;DHT22;50527;52.414;13.226;2023-12-14T13:14:54;5.60;99.90
64209;DHT22;50527;52.414;13.226;2023-12-14T13:17:20;5.60;99.90
64209;DHT22;50527;52.414;13.226;2023-12-14T13:19:45;5.50;99.90
64209;DHT22;50527;52.414;13.226;2023-12-14T13:22:11;5.50;99.90
64209;DHT22;50527;52.414;13.226;2023-12-14T13:24:39;5.50;99.90
64209;DHT22;50527;52.414;13.226;2023-12-14T13:27:05;5.60;99.90
64209;DHT22;50527;52.414;13.226;2023-12-14T13:31:50;5.60;99.90
64209;DHT22;50527;52.414;13.226;2023-12-14T13:34:16;5.60;99.90
64209;DHT22;50527;52.414;13.226;2023-12-14T13:36:41;5.60;99.90
64209;DHT22;50527;52.414;13.226;2023-12-14T13:39:07;5.60;99.90
64209;DHT22;50527;52.414;13.226;2023-12-14T13:41:32;5.60;99.90
64209;DHT22;50527;52.414;13.226;2023-12-14T13:44:00;5.60;99.90
64209;DHT22;50527;52.414;13.226;2023-12-14T13:46:26;5.60;99.90
64209;DHT22;50527;52.414;13.226;2023-12-14T13:48:51;5.60;99.90
64209;DHT22;50527;52.414;13.226;2023-12-14T13:51:18;5.60;99.90
64209;DHT22;50527;52.414;13.226;2023-12-14T13:53:43;5.60;99.90
64209;DHT22;50527;52.414;13.226;2023-12-14T14:02:44;5.50;99.90
64209;DHT22;50527;52.414;13.226;2023-12-14T14:05:10;5.50;99.90
64209;DHT22;50527;52.414;13.226;2023-12-14T14:07:36;5.50;99.90
64209;DHT22;50527;52.414;13.226;2023-12-14T14:10:01;5.60;99.90
64209;DHT22;50527;52.414;13.226;2023-12-14T14:14:41;5.50;99.90
64209;DHT22;50527;52.414;13.226;2023-12-14T14:17:07;5.50;99.90
64209;DHT22;50527;52.414;13.226;2023-12-14T14:19:33;5.50;99.90
64209;DHT22;50527;52.414;13.226;2023-12-14T14:21:58;5.50;99.90
64209;DHT22;50527;52.414;13.226;2023-12-14T14:24:23;5.50;99.90
64209;DHT22;50527;52.414;13.226;2023-12-14T14:26:49;5.50;99.90
64209;DHT22;50527;52.414;13.226;2023-12-14T14:29:14;5.40;99.90
64209;DHT22;50527;52.414;13.226;2023-12-14T14:31:40;5.40;99.90
64209;DHT22;50527;52.414;13.226;2023-12-14T14:34:06;5.40;99.90
64209;DHT22;50527;52.414;13.226;2023-12-14T14:36:31;5.30;99.90
64209;DHT22;50527;52.414;13.226;2023-12-14T14:38:59;5.30;99.90
64209;DHT22;50527;52.414;13.226;2023-12-14T14:41:25;5.40;99.90
64209;DHT22;50527;52.414;13.226;2023-12-14T14:43:50;5.40;99.90
64209;DHT22;50527;52.414;13.226;2023-12-14T14:46:16;5.40;99.90
64209;DHT22;50527;52.414;13.226;2023-12-14T14:48:43;5.40;99.90
64209;DHT22;50527;52.414;13.226;2023-12-14T14:51:08;5.40;99.90
64209;DHT22;50527;52.414;13.226;2023-12-14T14:53:34;5.40;99.90
64209;DHT22;50527;52.414;13.226;2023-12-14T14:56:02;5.40;99.90
64209;DHT22;50527;52.414;13.226;2023-12-14T14:58:28;5.40;99.90
64209;DHT22;50527;52.414;13.226;2023-12-14T15:00:53;5.40;99.90
64209;DHT22;50527;52.414;13.226;2023-12-14T15:03:19;5.30;99.90
64209;DHT22;50527;52.414;13.226;2023-12-14T15:05:45;5.40;99.90
64209;DHT22;50527;52.414;13.226;2023-12-14T15:08:11;5.30;99.90
64209;DHT22;50527;52.414;13.226;2023-12-14T15:13:40;5.30;99.90
64209;DHT22;50527;52.414;13.226;2023-12-14T15:19:39;5.30;99.90
64209;DHT22;50527;52.414;13.226;2023-12-14T15:22:26;5.30;99.90
64209;DHT22;50527;52.414;13.226;2023-12-14T15:25:43;5.30;99.90
64209;DHT22;50527;52.414;13.226;2023-12-14T15:28:48;5.40;99.90
64209;DHT22;50527;52.414;13.226;2023-12-14T15:31:43;5.40;99.90
64209;DHT22;50527;52.414;13.226;2023-12-14T15:48:51;5.40;99.90
64209;DHT22;50527;52.414;13.226;2023-12-14T15:51:55;5.30;99.90
64209;DHT22;50527;52.414;13.226;2023-12-14T16:07:23;5.30;99.90
64209;DHT22;50527;52.414;13.226;2023-12-14T16:10:31;5.30;99.90
64209;DHT22;50527;52.414;13.226;2023-12-14T16:16:38;5.40;99.90
64209;DHT22;50527;52.414;13.226;2023-12-14T16:22:37;5.30;99.90
64209;DHT22;50527;52.414;13.226;2023-12-14T16:25:41;5.30;99.90
64209;DHT22;50527;52.414;13.226;2023-12-14T16:28:46;5.40;99.90